createdAt,value
2023-04-17T00:00:17.742Z,963.0361
2023-04-17T00:01:20.335Z,963.0331
2023-04-17T00:02:23.028Z,963.0316
2023-04-17T00:03:25.557Z,963.0292
2023-04-17T00:04:28.156Z,963.0292
2023-04-17T00:05:30.696Z,963.0354
2023-04-17T00:06:33.210Z,963.0308
2023-04-17T00:07:35.824Z,963.0223
2023-04-17T00:08:38.655Z,963.0154
2023-04-17T00:09:40.995Z,963.0031
2023-04-17T00:10:44.442Z,962.9877
2023-04-17T00:11:46.157Z,962.9823
2023-04-17T00:12:48.707Z,962.9761
2023-04-17T00:13:51.322Z,962.9746
2023-04-17T00:14:54.078Z,962.9715
2023-04-17T00:15:56.595Z,962.9677
2023-04-17T00:16:59.044Z,962.9654
2023-04-17T00:18:01.777Z,962.9654
2023-04-17T00:19:04.204Z,962.9600
2023-04-17T00:20:07.122Z,962.9323
2023-04-17T00:21:09.375Z,962.9300
2023-04-17T00:22:11.980Z,962.9138
2023-04-17T00:23:14.542Z,962.9054
2023-04-17T00:24:17.148Z,962.9031
2023-04-17T00:25:19.712Z,962.8931
2023-04-17T00:26:22.304Z,962.8823
2023-04-17T00:27:24.859Z,962.8723
2023-04-17T00:28:27.474Z,962.8685
2023-04-17T00:29:30.029Z,962.8638
2023-04-17T00:30:32.642Z,962.8654
2023-04-17T00:31:35.226Z,962.8600
2023-04-17T00:32:37.890Z,962.8500
2023-04-17T00:33:40.566Z,962.8270
2023-04-17T00:34:42.974Z,962.8046
2023-04-17T00:35:45.532Z,962.7862
2023-04-17T00:36:48.136Z,962.7685
2023-04-17T00:37:50.720Z,962.7577
2023-04-17T00:38:53.311Z,962.7477
2023-04-17T00:39:55.865Z,962.7430
2023-04-17T00:40:58.469Z,962.7446
2023-04-17T00:42:01.319Z,962.7462
2023-04-17T00:43:03.613Z,962.7554
2023-04-17T00:44:06.365Z,962.7531
2023-04-17T00:45:08.780Z,962.7570
2023-04-17T00:46:11.439Z,962.7392
2023-04-17T00:47:13.956Z,962.7308
2023-04-17T00:48:16.576Z,962.7392
2023-04-17T00:49:19.127Z,962.7330
2023-04-17T00:50:21.747Z,962.7246
2023-04-17T00:51:24.301Z,962.7161
2023-04-17T00:52:27.109Z,962.7085
2023-04-17T00:53:29.463Z,962.7000
2023-04-17T00:54:32.090Z,962.6954
2023-04-17T00:55:34.645Z,962.6900
2023-04-17T00:56:37.246Z,962.6808
2023-04-17T00:57:39.812Z,962.6754
2023-04-17T00:58:42.406Z,962.6638
2023-04-17T00:59:44.960Z,962.6500
2023-04-17T01:00:47.606Z,962.6346
2023-04-17T01:01:50.208Z,962.6100
2023-04-17T01:02:52.829Z,962.6061
2023-04-17T01:03:55.764Z,962.5916
2023-04-17T01:04:57.987Z,962.5815
2023-04-17T01:06:00.538Z,962.5708
2023-04-17T01:07:03.173Z,962.5569
2023-04-17T01:08:05.703Z,962.5546
2023-04-17T01:09:08.306Z,962.5485
2023-04-17T01:10:10.862Z,962.5446
2023-04-17T01:11:13.469Z,962.5377
2023-04-17T01:12:16.023Z,962.5285
2023-04-17T01:13:18.664Z,962.5308
2023-04-17T01:14:21.209Z,962.5239
2023-04-17T01:15:23.821Z,962.5185
2023-04-17T01:16:26.380Z,962.5185
2023-04-17T01:17:28.987Z,962.5154
2023-04-17T01:18:31.527Z,962.5177
2023-04-17T01:19:34.350Z,962.5108
2023-04-17T01:20:37.006Z,962.5031
2023-04-17T01:21:39.308Z,962.5023
2023-04-17T01:22:41.854Z,962.4885
2023-04-17T01:23:44.470Z,962.4777
2023-04-17T01:24:47.039Z,962.4715
2023-04-17T01:25:49.637Z,962.4623
2023-04-17T01:26:52.202Z,962.4585
2023-04-17T01:27:54.795Z,962.4692
2023-04-17T01:28:57.409Z,962.4738
2023-04-17T01:29:59.967Z,962.4700
2023-04-17T01:31:02.566Z,962.4661
2023-04-17T01:32:05.134Z,962.4684
2023-04-17T01:33:07.707Z,962.4684
2023-04-17T01:34:10.306Z,962.4785
2023-04-17T01:35:12.874Z,962.4761
2023-04-17T01:36:15.485Z,962.4846
2023-04-17T01:37:18.041Z,962.4854
2023-04-17T01:38:20.664Z,962.4830
2023-04-17T01:39:23.508Z,962.4830
2023-04-17T01:40:25.835Z,962.4823
2023-04-17T01:41:28.401Z,962.4954
2023-04-17T01:42:30.990Z,962.5008
2023-04-17T01:43:33.569Z,962.5000
2023-04-17T01:44:36.164Z,962.5038
2023-04-17T01:45:38.760Z,962.5062
2023-04-17T01:46:41.409Z,962.5092
2023-04-17T01:47:43.926Z,962.5170
2023-04-17T01:48:46.628Z,962.5139
2023-04-17T01:49:49.069Z,962.5085
2023-04-17T01:50:51.681Z,962.4985
2023-04-17T01:51:54.243Z,962.4892
2023-04-17T01:52:56.847Z,962.4854
2023-04-17T01:53:59.407Z,962.4785
2023-04-17T01:55:02.020Z,962.4708
2023-04-17T01:56:04.586Z,962.4446
2023-04-17T01:57:07.202Z,962.4277
2023-04-17T01:58:09.759Z,962.4192
2023-04-17T01:59:12.504Z,962.4046
2023-04-17T02:00:14.928Z,962.4031
2023-04-17T02:01:17.559Z,962.4000
2023-04-17T02:02:20.332Z,962.3900
2023-04-17T02:03:22.814Z,962.3846
2023-04-17T02:04:25.329Z,962.3723
2023-04-17T02:05:27.883Z,962.3623
2023-04-17T02:06:30.446Z,962.3585
2023-04-17T02:07:33.058Z,962.3492
2023-04-17T02:08:35.617Z,962.3354
2023-04-17T02:09:38.235Z,962.3308
2023-04-17T02:10:40.793Z,962.3308
2023-04-17T02:11:43.404Z,962.3239
2023-04-17T02:12:45.966Z,962.3285
2023-04-17T02:13:48.576Z,962.3262
2023-04-17T02:14:51.137Z,962.3285
2023-04-17T02:15:53.771Z,962.3192
2023-04-17T02:16:56.321Z,962.3085
2023-04-17T02:17:59.018Z,962.3054
2023-04-17T02:19:01.488Z,962.3100
2023-04-17T02:20:04.102Z,962.3092
2023-04-17T02:21:06.661Z,962.3170
2023-04-17T02:22:09.266Z,962.3200
2023-04-17T02:23:11.843Z,962.3231
2023-04-17T02:24:14.434Z,962.3123
2023-04-17T02:25:17.295Z,962.3008
2023-04-17T02:26:19.613Z,962.2869
2023-04-17T02:27:22.163Z,962.2785
2023-04-17T02:28:24.783Z,962.2608
2023-04-17T02:29:27.355Z,962.2515
2023-04-17T02:30:29.942Z,962.2515
2023-04-17T02:31:32.546Z,962.2592
2023-04-17T02:32:35.139Z,962.2608
2023-04-17T02:33:37.685Z,962.2585
2023-04-17T02:34:40.273Z,962.2654
2023-04-17T02:35:42.829Z,962.2708
2023-04-17T02:36:45.453Z,962.2708
2023-04-17T02:37:48.017Z,962.2739
2023-04-17T02:38:50.612Z,962.2777
2023-04-17T02:39:53.183Z,962.2739
2023-04-17T02:40:55.778Z,962.2816
2023-04-17T02:41:58.332Z,962.2723
2023-04-17T02:43:00.952Z,962.2731
2023-04-17T02:44:03.513Z,962.2700
2023-04-17T02:45:06.121Z,962.2685
2023-04-17T02:46:08.825Z,962.2577
2023-04-17T02:47:11.289Z,962.2570
2023-04-17T02:48:13.855Z,962.2562
2023-04-17T02:49:16.449Z,962.2562
2023-04-17T02:50:19.017Z,962.2508
2023-04-17T02:51:21.623Z,962.2408
2023-04-17T02:52:24.237Z,962.2392
2023-04-17T02:53:26.783Z,962.2308
2023-04-17T02:54:29.340Z,962.2315
2023-04-17T02:55:31.946Z,962.2231
2023-04-17T02:56:34.517Z,962.2238
2023-04-17T02:57:37.113Z,962.2300
2023-04-17T02:58:39.711Z,962.2215
2023-04-17T02:59:42.292Z,962.2131
2023-04-17T03:00:44.853Z,962.2215
2023-04-17T03:01:47.504Z,962.2200
2023-04-17T03:02:50.155Z,962.2200
2023-04-17T03:03:52.911Z,962.2161
2023-04-17T03:04:55.170Z,962.2047
2023-04-17T03:05:57.780Z,962.1892
2023-04-17T03:07:00.337Z,962.1838
2023-04-17T03:08:02.943Z,962.1754
2023-04-17T03:09:05.518Z,962.1800
2023-04-17T03:10:08.118Z,962.1892
2023-04-17T03:11:10.670Z,962.1892
2023-04-17T03:12:13.285Z,962.1870
2023-04-17T03:13:15.840Z,962.1830
2023-04-17T03:14:18.484Z,962.1877
2023-04-17T03:15:21.032Z,962.1777
2023-04-17T03:16:23.910Z,962.1730
2023-04-17T03:17:26.201Z,962.1677
2023-04-17T03:18:28.795Z,962.1700
2023-04-17T03:19:31.338Z,962.1761
2023-04-17T03:20:33.956Z,962.1830
2023-04-17T03:21:36.505Z,962.1792
2023-04-17T03:22:39.109Z,962.1738
2023-04-17T03:23:41.673Z,962.1754
2023-04-17T03:24:44.525Z,962.1754
2023-04-17T03:25:46.849Z,962.1708
2023-04-17T03:26:49.480Z,962.1708
2023-04-17T03:27:52.014Z,962.1769
2023-04-17T03:28:54.618Z,962.1692
2023-04-17T03:29:57.199Z,962.1661
2023-04-17T03:30:59.788Z,962.1815
2023-04-17T03:32:02.455Z,962.1923
2023-04-17T03:33:05.009Z,962.1992
2023-04-17T03:34:07.514Z,962.2123
2023-04-17T03:35:10.120Z,962.2246
2023-04-17T03:36:12.685Z,962.2269
2023-04-17T03:37:15.296Z,962.2377
2023-04-17T03:38:17.861Z,962.2415
2023-04-17T03:39:20.854Z,962.2508
2023-04-17T03:40:23.030Z,962.2639
2023-04-17T03:41:25.637Z,962.2654
2023-04-17T03:42:28.203Z,962.2662
2023-04-17T03:43:30.804Z,962.2670
2023-04-17T03:44:33.358Z,962.2677
2023-04-17T03:45:36.233Z,962.2747
2023-04-17T03:46:38.527Z,962.2808
2023-04-17T03:47:41.167Z,962.2831
2023-04-17T03:48:43.703Z,962.2892
2023-04-17T03:49:46.310Z,962.2923
2023-04-17T03:50:48.898Z,962.3000
2023-04-17T03:51:51.477Z,962.3046
2023-04-17T03:52:54.035Z,962.3154
2023-04-17T03:53:56.642Z,962.3185
2023-04-17T03:54:59.201Z,962.3323
2023-04-17T03:56:01.814Z,962.3347
2023-04-17T03:57:04.382Z,962.3416
2023-04-17T03:58:06.992Z,962.3469
2023-04-17T03:59:09.785Z,962.3523
2023-04-17T04:00:12.161Z,962.3454
2023-04-17T04:01:14.793Z,962.3461
2023-04-17T04:02:17.435Z,962.3323
2023-04-17T04:03:20.042Z,962.3277
2023-04-17T04:04:22.827Z,962.3146
2023-04-17T04:05:25.402Z,962.3108
2023-04-17T04:06:27.664Z,962.3085
2023-04-17T04:07:30.269Z,962.2985
2023-04-17T04:08:32.835Z,962.2915
2023-04-17T04:09:35.396Z,962.2885
2023-04-17T04:10:37.999Z,962.2877
2023-04-17T04:11:40.554Z,962.2953
2023-04-17T04:12:43.165Z,962.2915
2023-04-17T04:13:45.722Z,962.2869
2023-04-17T04:14:48.326Z,962.2769
2023-04-17T04:15:50.900Z,962.2762
2023-04-17T04:16:53.496Z,962.2762
2023-04-17T04:17:56.109Z,962.2785
2023-04-17T04:18:58.676Z,962.2839
2023-04-17T04:20:01.269Z,962.2854
2023-04-17T04:21:03.838Z,962.2861
2023-04-17T04:22:06.959Z,962.2854
2023-04-17T04:23:08.989Z,962.2900
2023-04-17T04:24:11.552Z,962.2953
2023-04-17T04:25:14.169Z,962.3069
2023-04-17T04:26:16.713Z,962.3100
2023-04-17T04:27:19.322Z,962.3177
2023-04-17T04:28:21.883Z,962.3270
2023-04-17T04:29:24.493Z,962.3239
2023-04-17T04:30:27.060Z,962.3315
2023-04-17T04:31:29.843Z,962.3377
2023-04-17T04:32:32.298Z,962.3362
2023-04-17T04:33:35.898Z,962.3392
2023-04-17T04:34:37.380Z,962.3423
2023-04-17T04:35:40.007Z,962.3392
2023-04-17T04:36:42.553Z,962.3331
2023-04-17T04:37:45.164Z,962.3370
2023-04-17T04:38:47.726Z,962.3392
2023-04-17T04:39:50.325Z,962.3408
2023-04-17T04:40:52.944Z,962.3461
2023-04-17T04:41:55.502Z,962.3392
2023-04-17T04:42:58.073Z,962.3408
2023-04-17T04:44:00.669Z,962.3400
2023-04-17T04:45:03.239Z,962.3546
2023-04-17T04:46:05.831Z,962.3608
2023-04-17T04:47:08.546Z,962.3677
2023-04-17T04:48:10.995Z,962.3630
2023-04-17T04:49:13.621Z,962.3553
2023-04-17T04:50:17.388Z,962.3546
2023-04-17T04:51:18.755Z,962.3492
2023-04-17T04:52:21.340Z,962.3508
2023-04-17T04:53:24.123Z,962.3600
2023-04-17T04:54:26.514Z,962.3685
2023-04-17T04:55:29.062Z,962.3754
2023-04-17T04:56:33.040Z,962.3900
2023-04-17T04:57:34.229Z,962.3962
2023-04-17T04:58:36.841Z,962.4031
2023-04-17T04:59:39.402Z,962.3977
2023-04-17T05:00:42.052Z,962.4039
2023-04-17T05:01:44.866Z,962.4131
2023-04-17T05:02:47.278Z,962.4215
2023-04-17T05:03:49.874Z,962.4254
2023-04-17T05:04:52.367Z,962.4346
2023-04-17T05:05:54.903Z,962.4438
2023-04-17T05:06:57.612Z,962.4547
2023-04-17T05:08:00.070Z,962.4623
2023-04-17T05:09:02.650Z,962.4708
2023-04-17T05:10:05.285Z,962.4854
2023-04-17T05:11:07.819Z,962.4969
2023-04-17T05:12:10.508Z,962.4962
2023-04-17T05:13:13.084Z,962.5000
2023-04-17T05:14:15.731Z,962.5008
2023-04-17T05:15:18.247Z,962.5100
2023-04-17T05:16:20.882Z,962.5115
2023-04-17T05:17:23.432Z,962.5185
2023-04-17T05:18:26.015Z,962.5185
2023-04-17T05:19:28.564Z,962.5208
2023-04-17T05:20:31.184Z,962.5162
2023-04-17T05:21:33.735Z,962.5215
2023-04-17T05:22:36.339Z,962.5247
2023-04-17T05:23:38.891Z,962.5339
2023-04-17T05:24:41.507Z,962.5385
2023-04-17T05:25:44.064Z,962.5392
2023-04-17T05:26:46.668Z,962.5461
2023-04-17T05:27:49.281Z,962.5562
2023-04-17T05:28:51.828Z,962.5562
2023-04-17T05:29:54.385Z,962.5638
2023-04-17T05:30:56.989Z,962.5739
2023-04-17T05:31:59.604Z,962.5808
2023-04-17T05:33:02.222Z,962.5847
2023-04-17T05:34:04.868Z,962.5892
2023-04-17T05:35:07.344Z,962.5908
2023-04-17T05:36:09.893Z,962.5954
2023-04-17T05:37:12.484Z,962.6046
2023-04-17T05:38:15.045Z,962.6169
2023-04-17T05:39:17.665Z,962.6215
2023-04-17T05:40:20.210Z,962.6262
2023-04-17T05:41:22.822Z,962.6370
2023-04-17T05:42:25.379Z,962.6462
2023-04-17T05:43:28.005Z,962.6577
2023-04-17T05:44:30.548Z,962.6623
2023-04-17T05:45:33.329Z,962.6669
2023-04-17T05:46:35.717Z,962.6854
2023-04-17T05:47:38.515Z,962.6885
2023-04-17T05:48:40.876Z,962.6970
2023-04-17T05:49:43.496Z,962.6985
2023-04-17T05:50:46.058Z,962.7069
2023-04-17T05:51:48.672Z,962.7070
2023-04-17T05:52:51.236Z,962.7123
2023-04-17T05:53:53.851Z,962.7169
2023-04-17T05:54:56.389Z,962.7200
2023-04-17T05:55:58.995Z,962.7269
2023-04-17T05:57:01.555Z,962.7277
2023-04-17T05:58:16.862Z,962.7346
2023-04-17T05:59:07.753Z,962.7454
2023-04-17T06:00:09.336Z,962.7485
2023-04-17T06:01:11.914Z,962.7515
2023-04-17T06:02:14.587Z,962.7570
2023-04-17T06:03:18.162Z,962.7646
2023-04-17T06:04:19.987Z,962.7662
2023-04-17T06:05:22.327Z,962.7654
2023-04-17T06:06:24.846Z,962.7639
2023-04-17T06:07:27.401Z,962.7715
2023-04-17T06:08:30.016Z,962.7739
2023-04-17T06:09:32.581Z,962.7731
2023-04-17T06:10:35.198Z,962.7731
2023-04-17T06:11:37.748Z,962.7739
2023-04-17T06:12:40.361Z,962.7792
2023-04-17T06:13:42.966Z,962.7823
2023-04-17T06:14:45.525Z,962.7769
2023-04-17T06:15:48.077Z,962.7762
2023-04-17T06:16:50.850Z,962.7739
2023-04-17T06:17:53.319Z,962.7877
2023-04-17T06:18:55.860Z,962.7915
2023-04-17T06:19:58.414Z,962.8000
2023-04-17T06:21:01.051Z,962.8077
2023-04-17T06:22:03.584Z,962.8115
2023-04-17T06:23:06.196Z,962.8170
2023-04-17T06:24:08.764Z,962.8192
2023-04-17T06:25:11.915Z,962.8208
2023-04-17T06:26:13.929Z,962.8077
2023-04-17T06:27:16.533Z,962.8069
2023-04-17T06:28:19.099Z,962.8008
2023-04-17T06:29:21.734Z,962.8192
2023-04-17T06:30:24.256Z,962.8231
2023-04-17T06:31:26.888Z,962.8315
2023-04-17T06:32:29.484Z,962.8500
2023-04-17T06:33:32.062Z,962.8530
2023-04-17T06:34:34.604Z,962.8569
2023-04-17T06:35:37.206Z,962.8508
2023-04-17T06:36:39.792Z,962.8469
2023-04-17T06:37:42.576Z,962.8515
2023-04-17T06:38:44.933Z,962.8546
2023-04-17T06:39:47.535Z,962.8523
2023-04-17T06:40:52.131Z,962.8454
2023-04-17T06:41:52.703Z,962.8531
2023-04-17T06:42:55.308Z,962.8431
2023-04-17T06:43:57.865Z,962.8416
2023-04-17T06:45:00.434Z,962.8400
2023-04-17T06:46:03.054Z,962.8354
2023-04-17T06:47:05.593Z,962.8339
2023-04-17T06:48:08.201Z,962.8416
2023-04-17T06:49:11.038Z,962.8492
2023-04-17T06:50:13.387Z,962.8439
2023-04-17T06:51:15.917Z,962.8484
2023-04-17T06:52:18.525Z,962.8569
2023-04-17T06:53:21.086Z,962.8577
2023-04-17T06:54:23.700Z,962.8677
2023-04-17T06:55:26.277Z,962.8746
2023-04-17T06:56:28.893Z,962.8777
2023-04-17T06:57:31.412Z,962.8831
2023-04-17T06:58:34.030Z,962.8831
2023-04-17T06:59:36.575Z,962.8962
2023-04-17T07:00:39.200Z,962.9131
2023-04-17T07:01:41.826Z,962.9238
2023-04-17T07:02:44.433Z,962.9415
2023-04-17T07:03:47.082Z,962.9600
2023-04-17T07:04:49.784Z,962.9569
2023-04-17T07:05:52.084Z,962.9592
2023-04-17T07:06:54.684Z,962.9531
2023-04-17T07:07:57.237Z,962.9477
2023-04-17T07:09:00.120Z,962.9408
2023-04-17T07:10:02.413Z,962.9562
2023-04-17T07:11:05.048Z,962.9654
2023-04-17T07:12:07.589Z,962.9808
2023-04-17T07:13:10.192Z,962.9923
2023-04-17T07:14:12.973Z,962.9900
2023-04-17T07:15:15.523Z,962.9969
2023-04-17T07:16:17.981Z,963.0038
2023-04-17T07:17:20.613Z,963.0038
2023-04-17T07:18:23.095Z,963.0131
2023-04-17T07:19:25.703Z,963.0354
2023-04-17T07:20:28.283Z,963.0323
2023-04-17T07:21:30.872Z,963.0446
2023-04-17T07:22:33.434Z,963.0592
2023-04-17T07:23:36.035Z,963.0569
2023-04-17T07:24:38.603Z,963.0554
2023-04-17T07:25:41.235Z,963.0538
2023-04-17T07:26:44.040Z,963.0546
2023-04-17T07:27:46.382Z,963.0523
2023-04-17T07:28:48.942Z,963.0538
2023-04-17T07:29:51.564Z,963.0554
2023-04-17T07:30:54.107Z,963.0477
2023-04-17T07:31:56.928Z,963.0554
2023-04-17T07:32:59.534Z,963.0623
2023-04-17T07:34:01.925Z,963.0530
2023-04-17T07:35:04.494Z,963.0638
2023-04-17T07:36:07.072Z,963.0546
2023-04-17T07:37:09.632Z,963.0592
2023-04-17T07:38:12.254Z,963.0492
2023-04-17T07:39:14.855Z,963.0546
2023-04-17T07:40:17.410Z,963.0608
2023-04-17T07:41:19.971Z,963.0646
2023-04-17T07:42:22.661Z,963.0770
2023-04-17T07:43:25.206Z,963.0854
2023-04-17T07:44:27.766Z,963.0916
2023-04-17T07:45:30.334Z,963.0961
2023-04-17T07:46:33.005Z,963.1023
2023-04-17T07:47:35.557Z,963.0954
2023-04-17T07:48:38.117Z,963.1023
2023-04-17T07:49:40.675Z,963.0900
2023-04-17T07:50:43.276Z,963.0792
2023-04-17T07:51:45.830Z,963.0831
2023-04-17T07:52:48.453Z,963.0954
2023-04-17T07:53:51.031Z,963.1061
2023-04-17T07:54:53.628Z,963.1146
2023-04-17T07:55:56.228Z,963.1185
2023-04-17T07:56:58.856Z,963.1230
2023-04-17T07:58:01.345Z,963.1262
2023-04-17T07:59:03.958Z,963.1223
2023-04-17T08:00:06.511Z,963.1315
2023-04-17T08:01:09.126Z,963.1300
2023-04-17T08:02:11.800Z,963.1292
2023-04-17T08:03:14.504Z,963.1277
2023-04-17T08:04:17.338Z,963.1270
2023-04-17T08:05:19.531Z,963.1238
2023-04-17T08:06:22.023Z,963.1138
2023-04-17T08:07:24.668Z,963.1092
2023-04-17T08:08:27.202Z,963.1108
2023-04-17T08:09:29.815Z,963.1077
2023-04-17T08:10:32.372Z,963.1115
2023-04-17T08:11:40.095Z,963.1023
2023-04-17T08:12:38.823Z,963.0946
2023-04-17T08:13:40.150Z,963.0917
2023-04-17T08:14:42.709Z,963.0839
2023-04-17T08:15:45.329Z,963.0939
2023-04-17T08:16:47.952Z,963.0954
2023-04-17T08:17:50.526Z,963.0900
2023-04-17T08:18:53.055Z,963.0869
2023-04-17T08:19:55.692Z,963.0931
2023-04-17T08:20:58.217Z,963.1023
2023-04-17T08:22:00.837Z,963.1108
2023-04-17T08:23:03.402Z,963.1115
2023-04-17T08:24:06.003Z,963.1246
2023-04-17T08:25:08.557Z,963.1392
2023-04-17T08:26:11.167Z,963.1431
2023-04-17T08:27:13.730Z,963.1362
2023-04-17T08:28:16.379Z,963.1370
2023-04-17T08:29:18.951Z,963.1354
2023-04-17T08:30:21.496Z,963.1469
2023-04-17T08:31:24.177Z,963.1577
2023-04-17T08:32:26.674Z,963.1646
2023-04-17T08:33:29.224Z,963.1746
2023-04-17T08:34:31.987Z,963.1715
2023-04-17T08:35:34.389Z,963.1692
2023-04-17T08:36:37.001Z,963.1631
2023-04-17T08:37:39.569Z,963.1600
2023-04-17T08:38:42.208Z,963.1516
2023-04-17T08:39:44.730Z,963.1554
2023-04-17T08:40:47.357Z,963.1500
2023-04-17T08:41:49.893Z,963.1439
2023-04-17T08:42:52.505Z,963.1385
2023-04-17T08:43:55.078Z,963.1531
2023-04-17T08:44:57.666Z,963.1500
2023-04-17T08:46:00.604Z,963.1592
2023-04-17T08:47:02.840Z,963.1608
2023-04-17T08:48:05.424Z,963.1539
2023-04-17T08:49:08.015Z,963.1592
2023-04-17T08:50:10.595Z,963.1415
2023-04-17T08:51:13.178Z,963.1285
2023-04-17T08:52:15.746Z,963.1447
2023-04-17T08:53:18.341Z,963.1508
2023-04-17T08:54:20.897Z,963.1331
2023-04-17T08:55:23.522Z,963.1161
2023-04-17T08:56:26.076Z,963.1161
2023-04-17T08:57:28.675Z,963.1123
2023-04-17T08:58:31.236Z,963.1254
2023-04-17T08:59:33.867Z,963.1308
2023-04-17T09:00:36.435Z,963.1208
2023-04-17T09:01:39.089Z,963.1161
2023-04-17T09:02:41.716Z,963.1130
2023-04-17T09:03:44.338Z,963.1085
2023-04-17T09:04:46.859Z,963.1270
2023-04-17T09:05:49.359Z,963.1423
2023-04-17T09:06:52.025Z,963.1238
2023-04-17T09:07:54.528Z,963.0977
2023-04-17T09:08:57.086Z,963.0808
2023-04-17T09:09:59.708Z,963.0900
2023-04-17T09:11:02.276Z,963.1008
2023-04-17T09:12:04.890Z,963.1092
2023-04-17T09:13:07.474Z,963.1154
2023-04-17T09:14:10.037Z,963.1154
2023-04-17T09:15:12.603Z,963.1100
2023-04-17T09:16:15.281Z,963.1023
2023-04-17T09:17:17.770Z,963.0961
2023-04-17T09:18:20.451Z,963.0754
2023-04-17T09:19:23.133Z,963.0731
2023-04-17T09:20:25.772Z,963.0708
2023-04-17T09:21:28.174Z,963.0800
2023-04-17T09:22:30.792Z,963.0715
2023-04-17T09:23:33.352Z,963.0615
2023-04-17T09:24:36.316Z,963.0477
2023-04-17T09:25:38.514Z,963.0461
2023-04-17T09:26:41.135Z,963.0461
2023-04-17T09:27:43.682Z,963.0500
2023-04-17T09:28:46.303Z,963.0515
2023-04-17T09:29:48.854Z,963.0416
2023-04-17T09:30:51.466Z,963.0331
2023-04-17T09:31:54.095Z,963.0316
2023-04-17T09:32:56.785Z,963.0446
2023-04-17T09:33:59.216Z,963.0423
2023-04-17T09:35:01.825Z,963.0400
2023-04-17T09:36:04.401Z,963.0361
2023-04-17T09:37:07.969Z,963.0239
2023-04-17T09:38:09.559Z,963.0361
2023-04-17T09:39:12.242Z,963.0385
2023-04-17T09:40:14.723Z,963.0400
2023-04-17T09:41:17.407Z,963.0385
2023-04-17T09:42:19.914Z,963.0492
2023-04-17T09:43:22.442Z,963.0385
2023-04-17T09:44:25.057Z,963.0423
2023-04-17T09:45:48.604Z,963.0377
2023-04-17T09:46:30.250Z,963.0325
2023-04-17T09:47:32.838Z,963.0277
2023-04-17T09:48:35.368Z,963.0247
2023-04-17T09:49:38.198Z,963.0139
2023-04-17T09:50:40.527Z,962.9915
2023-04-17T09:51:43.155Z,962.9800
2023-04-17T09:52:45.713Z,962.9392
2023-04-17T09:53:48.363Z,962.9377
2023-04-17T09:54:50.849Z,962.9146
2023-04-17T09:55:53.467Z,962.9046
2023-04-17T09:56:56.213Z,962.9084
2023-04-17T09:57:58.625Z,962.9023
2023-04-17T09:59:01.193Z,962.9200
2023-04-17T10:00:03.786Z,962.9223
2023-04-17T10:01:06.401Z,962.9238
2023-04-17T10:02:09.092Z,962.9108
2023-04-17T10:03:11.760Z,962.9023
2023-04-17T10:04:14.440Z,962.8915
2023-04-17T10:05:16.672Z,962.8723
2023-04-17T10:06:19.306Z,962.8685
2023-04-17T10:07:21.842Z,962.8423
2023-04-17T10:08:24.451Z,962.8285
2023-04-17T10:09:27.043Z,962.8062
2023-04-17T10:10:29.670Z,962.8377
2023-04-17T10:11:32.196Z,962.8185
2023-04-17T10:12:35.113Z,962.8170
2023-04-17T10:13:37.337Z,962.8069
2023-04-17T10:14:39.953Z,962.7800
2023-04-17T10:15:42.500Z,962.7823
2023-04-17T10:16:45.327Z,962.7515
2023-04-17T10:17:47.677Z,962.7092
2023-04-17T10:18:50.293Z,962.7231
2023-04-17T10:19:52.852Z,962.7454
2023-04-17T10:20:55.534Z,962.7546
2023-04-17T10:21:58.006Z,962.7161
2023-04-17T10:23:00.617Z,962.6992
2023-04-17T10:24:03.174Z,962.7408
2023-04-17T10:25:05.768Z,962.7477
2023-04-17T10:26:08.335Z,962.7323
2023-04-17T10:27:10.958Z,962.6938
2023-04-17T10:28:13.507Z,962.6885
2023-04-17T10:29:16.109Z,962.6808
2023-04-17T10:31:21.311Z,962.6584
2023-04-17T10:32:23.818Z,962.6561
2023-04-17T10:33:26.470Z,962.6277
2023-04-17T10:34:29.045Z,962.6138
2023-04-17T10:35:31.603Z,962.5723
2023-04-17T10:36:34.156Z,962.6277
2023-04-17T10:37:36.764Z,962.5739
2023-04-17T10:38:39.319Z,962.5654
2023-04-17T10:39:41.928Z,962.5269
2023-04-17T10:40:44.548Z,962.4823
2023-04-17T10:41:47.106Z,962.4785
2023-04-17T10:42:49.661Z,962.4562
2023-04-17T10:43:52.290Z,962.4708
2023-04-17T10:44:54.845Z,962.4777
2023-04-17T10:45:57.531Z,962.5200
2023-04-17T10:46:59.993Z,962.5292
2023-04-17T10:48:02.697Z,962.5070
2023-04-17T10:49:05.185Z,962.4885
2023-04-17T10:50:07.790Z,962.5262
2023-04-17T10:51:10.355Z,962.5200
2023-04-17T10:52:12.944Z,962.5115
2023-04-17T10:53:15.504Z,962.5146
2023-04-17T10:54:18.114Z,962.5284
2023-04-17T10:55:20.686Z,962.5600
2023-04-17T10:56:23.285Z,962.5846
2023-04-17T10:57:26.176Z,962.6046
2023-04-17T10:58:31.616Z,962.5731
2023-04-17T10:59:31.010Z,962.5677
2023-04-17T11:00:33.628Z,962.5469
2023-04-17T11:01:36.197Z,962.5316
2023-04-17T11:02:38.841Z,962.4923
2023-04-17T11:03:41.375Z,962.5223
2023-04-17T11:04:43.979Z,962.5031
2023-04-17T11:05:46.524Z,962.5416
2023-04-17T11:06:49.136Z,962.5754
2023-04-17T11:07:51.676Z,962.5654
2023-04-17T11:08:55.615Z,962.5115
2023-04-17T11:09:56.824Z,962.4792
2023-04-17T11:10:59.461Z,962.4485
2023-04-17T11:12:02.383Z,962.4161
2023-04-17T11:13:04.606Z,962.3969
2023-04-17T11:14:07.152Z,962.3808
2023-04-17T11:15:09.818Z,962.3685
2023-04-17T11:16:12.318Z,962.3785
2023-04-17T11:17:14.954Z,962.4000
